San Bruno, California
Current Conditions -  °F | °C
As of 4:56 AM on Friday 19 Dec 2014 (Local Time) from KSFO Reporting Station
Overcast Overcast  
Wind Chill: 55°   Ceiling: 1900
Heat Index: 55°   Visibility: 9mi
Dew Point: 54°   Wind: 6mph
Humidity: 96%   Direction: 140°SE
Pressure: 30.12"   Gusts: NA
Location:  37.62°N, 122.41°W
Report Text: KSFO 191256Z 14005KT 9SM FEW014 BKN019 OVC036 13/12 A3012 RMK AO2 RAE1157B20E46 SLP200 P0000 T01280122
Loading
Personal Weather Stations






























Interactive Weather Map New forecast layout! Learn more

10-Day Weather Forecast

Advertisements
Track Severe Weather on mobile